• Join FlightAware (Why Join?)
  • Login
  • US Flag 
06:19PM EDT


 

Airport Tracker/Info


-or-


 

Live Flight TrackerFlight Track Log ✈ N5FT ✈ 22-May-2013 ✈ KHOU - KHQZ

Flight Track Log - Related Links

Times and Time Zones

All times are in EDT time to prevent confusion due to time zone crossing. See the N5FT flight status page for this flight to view local times or setup timezone preferences in your user account.

Time Position Orientation Groundspeed Altitude Reporting Facility
EDT Latitude Longitude Course Direction KTS MPH feet Rate Location/Type
04:07PM 29.6394 -95.2886 225° Southwest 93 107 600  Level Houston Center
04:08PM 29.6206 -95.3100 225° Southwest 95 109 1,400 660 Climbing Houston Center
04:09PM 29.6086 -95.3256 229° Southwest 95 109 1,800 600 Climbing Houston Center
04:09PM 29.6000 -95.3367 228° Southwest 98 113 2,100 660 Climbing Houston Center
04:10PM 29.5914 -95.3494 232° Southwest 96 110 2,500 720 Climbing Houston Center
04:10PM 29.5831 -95.3603 229° Southwest 95 109 2,900 420 Climbing Houston Center
04:11PM 29.5686 -95.3792 229° Southwest 100 115 3,000 180 Climbing Houston Center
04:11PM 29.5589 -95.3919 229° Southwest 145 167 3,100  Climbing Houston Center
04:12PM 29.5417 -95.4144 229° Southwest 130 150 3,000  Descending Houston Center
04:12PM 29.5325 -95.4264 229° Southwest 148 170 3,100  Climbing Houston Center
04:13PM 29.5208 -95.4536 244° Southwest 149 171 3,000  Descending Houston Center
04:13PM 29.5297 -95.4653 311° West 149 171 3,100  Climbing Houston Center
04:14PM 29.5517 -95.4869 319° Northwest 156 180 3,000 -60 Descending Houston Center
04:15PM 29.5844 -95.5203 319° Northwest 156 180 3,000  Level Houston Center
04:16PM 29.6203 -95.5611 315° West 154 177 3,000  Level Houston Center
04:17PM 29.6531 -95.5878 325° Northwest 148 170 3,000  Level Houston Center
04:18PM 29.6933 -95.5992 346° North 152 175 3,000  Level Houston Center
04:19PM 29.7339 -95.6086 349° North 149 171 3,000  Level Houston Center
04:20PM 29.7733 -95.6189 347° North 147 169 3,000  Level Houston Center
04:21PM 29.8144 -95.6292 348° North 149 171 3,000 420 Level Houston Center
04:22PM 29.8581 -95.6411 347° North 137 158 3,900 480 Climbing Houston Center
04:23PM 29.8956 -95.6508 347° North 135 155 4,000  Climbing Houston Center
04:24PM 29.9394 -95.6608 349° North 154 177 4,000  Level Houston Center
04:25PM 29.9836 -95.6717 348° North 160 184 4,000  Level Houston Center
04:26PM 30.0258 -95.6833 347° North 157 181 4,000  Level Houston Center
04:27PM 30.0753 -95.6944 349° North 160 184 4,100 420 Climbing Houston Center
04:28PM 30.1144 -95.7047 347° North 142 163 4,900 420 Climbing Houston Center
04:29PM 30.1525 -95.7158 346° North 139 160 5,000 60 Climbing Houston Center
04:30PM 30.1978 -95.7283 347° North 158 182 5,100  Climbing Houston Center
04:32PM 30.2386 -95.7381 348° North 158 182 5,100  Level Houston Center
04:33PM 30.2858 -95.7494 348° North 159 183 5,100 180 Level Houston Center
04:34PM 30.3267 -95.7592 348° North 138 159 5,500 420 Climbing Houston Center
04:35PM 30.3631 -95.7694 346° North 136 157 6,000 420 Climbing Houston Center
04:36PM 30.4025 -95.7806 346° North 135 155 6,500 540 Climbing Houston Center
04:37PM 30.4383 -95.7897 348° North 135 155 7,100 540 Climbing Houston Center
04:38PM 30.4728 -95.7978 349° North 131 151 7,600 420 Climbing Houston Center
04:39PM 30.5111 -95.8067 349° North 132 152 8,100 240 Climbing Houston Center
04:40PM 30.5500 -95.8178 346° North 153 176 8,100  Level Houston Center
04:41PM 30.5950 -95.8294 347° North 157 181 8,100  Level Houston Center
04:42PM 30.6450 -95.8406 349° North 157 181 8,100  Level Houston Center
04:43PM 30.6808 -95.8511 346° North 155 178 8,100  Level Houston Center
04:44PM 30.7283 -95.8628 348° North 152 175 8,100  Level Houston Center
04:45PM 30.7711 -95.8742 347° North 156 180 8,100  Level Houston Center
04:46PM 30.8131 -95.8861 346° North 156 180 8,100  Level Houston Center
04:47PM 30.8656 -95.8992 348° North 158 182 8,100  Level Houston Center
04:48PM 30.9075 -95.9106 347° North 155 178 8,100  Level Houston Center
04:49PM 30.9500 -95.9208 348° North 155 178 8,100  Level Houston Center
04:50PM 30.9911 -95.9333 345° North 154 177 8,100  Level Houston Center
04:51PM 31.0336 -95.9439 348° North 154 177 8,100  Level Houston Center
04:52PM 31.0758 -95.9547 348° North 154 177 8,100  Level Houston Center
04:53PM 31.1256 -95.9675 348° North 152 175 8,100  Level Houston Center
04:54PM 31.1686 -95.9764 350° North 155 178 8,100  Level Houston Center
04:55PM 31.2106 -95.9875 347° North 154 177 8,100  Level Houston Center
04:56PM 31.2528 -95.9964 350° North 154 177 8,100 -60 Level Houston Center
04:57PM 31.2964 -96.0064 349° North 159 183 8,000 -60 Descending Houston Center
04:58PM 31.3386 -96.0175 347° North 156 180 8,000  Level Houston Center
05:00PM 31.3892 -96.0286 349° North 154 177 8,000  Level Houston Center
05:01PM 31.4314 -96.0386 349° North 154 177 8,000  Level Houston Center
05:02PM 31.4744 -96.0489 348° North 157 181 8,000  Level Houston Center
05:03PM 31.5172 -96.0578 350° North 156 180 8,000  Level Houston Center
05:04PM 31.5594 -96.0686 348° North 156 180 8,000  Level Houston Center
05:05PM 31.6011 -96.0781 349° North 153 176 8,000  Level Houston Center
05:05PM 31.6344 -96.0883 345° North 153 176 8,000  Level Fort Worth Center
05:06PM 31.6742 -96.0978 349° North 153 176 8,000  Level Fort Worth Center
05:07PM 31.7158 -96.1067 350° North 153 176 8,000 -60 Level Fort Worth Center
05:08PM 31.7494 -96.1089 357° North 141 162 7,900 -300 Descending Fort Worth Center
05:09PM 31.8039 -96.1275 344° North 169 194 7,400 -660 Descending Fort Worth Center
05:10PM 31.8500 -96.1417 345° North 162 186 6,600 -660 Descending Fort Worth Center
05:11PM 31.8981 -96.1531 349° North 162 186 6,100 -300 Descending Fort Worth Center
05:12PM 31.9442 -96.1622 350° North 169 194 6,000 -60 Descending Fort Worth Center
05:13PM 31.9817 -96.1717 348° North 169 194 6,000  Level Fort Worth Center
05:14PM 32.0278 -96.1833 348° North 162 186 6,000  Level Fort Worth Center
05:15PM 32.0758 -96.1925 351° North 162 186 6,000  Level Fort Worth Center
05:16PM 32.1158 -96.2067 343° North 162 186 6,000  Level Fort Worth Center
05:17PM 32.1658 -96.2158 351° North 162 186 6,000  Level Fort Worth Center
05:18PM 32.2100 -96.2300 345° North 167 192 6,000 -240 Level Fort Worth Center
05:19PM 32.2519 -96.2564 332° Northwest 167 192 5,600 -360 Descending Fort Worth Center
05:20PM 32.2981 -96.2853 332° Northwest 172 198 5,300 -300 Descending Fort Worth Center
05:21PM 32.3358 -96.3094 332° Northwest 172 198 5,000 -360 Descending Fort Worth Center
05:22PM 32.3842 -96.3383 333° Northwest 172 198 4,600 -420 Descending Fort Worth Center
05:23PM 32.4239 -96.3575 338° Northwest 172 198 4,200 -540 Descending Fort Worth Center
05:24PM 32.4700 -96.3842 334° Northwest 177 204 3,600 -480 Descending Fort Worth Center
05:25PM 32.5058 -96.4033 336° Northwest 172 198 3,300 -300 Descending Fort Worth Center
05:26PM 32.5478 -96.4250 336° Northwest 149 171 3,000 -120 Descending Fort Worth Center
05:27PM 32.5833 -96.4419 338° Northwest 149 171 3,100 60 Climbing Fort Worth Center
05:37PM 32.6296 -96.4822 324° Northwest  Level FlightAware Approximate
05:44PM 32.7333 -96.5167 337° Northwest  Level FlightAware Approximate
05:45PM 32.7470 -96.5304 337° Northwest  Level Estimated
05:46PM 32.7470 -96.5304 337° Northwest  Level Estimated
05:47PM 32.7470 -96.5304 337° Northwest  Level Estimated
05:48PM 32.7470 -96.5304 337° Northwest  Level Estimated
05:49PM 32.7470 -96.5304 337° Northwest  Level Estimated
05:50PM 32.7470 -96.5304 337° Northwest  Level Estimated
05:51PM 32.7470 -96.5304 337° Northwest  Level Estimated